Time;durP1;ratioP1;P1;durP2;ratioP2;P2;SDS_P1;SDS_P2;PMS_P1;PMS_P2;Temp;Humidity;BMP_temperature;BMP_pressure;BME280_temperature;BME280_humidity;BME280_pressure;Samples;Min_cycle;Max_cycle;Signal;HPM_P1;HPM_P2
2022/02/20 00:01:42;;;;;;;15.30;3.80;;;;;;;5.67;100.00;100918.06;5060935;28;20127;-73
2022/02/20 00:04:08;;;;;;;14.88;3.40;;;;;;;5.66;100.00;100914.47;5079550;28;20503;-73
2022/02/20 00:06:33;;;;;;;19.55;3.80;;;;;;;5.68;100.00;100911.44;5094909;28;20032;-72
2022/02/20 00:08:59;;;;;;;19.40;3.72;;;;;;;5.68;100.00;100901.25;5080379;28;20023;-73
2022/02/20 00:11:24;;;;;;;18.63;3.83;;;;;;;5.66;100.00;100913.66;5081120;28;20054;-73
2022/02/20 00:13:50;;;;;;;17.33;3.53;;;;;;;5.67;100.00;100907.03;5061015;28;20031;-73
2022/02/20 00:16:15;;;;;;;17.27;3.40;;;;;;;5.64;100.00;100915.81;5079445;28;20028;-73
2022/02/20 00:18:41;;;;;;;16.83;3.33;;;;;;;5.64;100.00;100918.56;5060467;28;20035;-73
2022/02/20 00:21:06;;;;;;;14.43;2.85;;;;;;;5.63;100.00;100917.75;5054779;28;21024;-73
2022/02/20 00:23:32;;;;;;;15.68;3.35;;;;;;;5.62;100.00;100926.25;5061284;28;20039;-73
2022/02/20 00:25:57;;;;;;;14.73;3.28;;;;;;;5.59;100.00;100928.41;5077879;28;20035;-73
2022/02/20 00:28:26;;;;;;;12.88;2.90;;;;;;;5.57;100.00;100927.84;5076959;28;20047;-73
2022/02/20 00:30:51;;;;;;;17.08;3.33;;;;;;;5.57;100.00;100936.13;5076642;28;20038;-73
2022/02/20 00:33:17;;;;;;;23.25;3.60;;;;;;;5.56;100.00;100945.44;5070845;28;20048;-73
2022/02/20 00:35:42;;;;;;;17.38;3.40;;;;;;;5.55;100.00;100946.53;5053228;28;20474;-73
2022/02/20 00:38:08;;;;;;;14.35;3.50;;;;;;;5.54;100.00;100950.41;5059224;28;20036;-73
2022/02/20 00:40:34;;;;;;;13.75;3.35;;;;;;;5.54;100.00;100947.63;5077525;28;20031;-72
2022/02/20 00:42:59;;;;;;;16.15;3.00;;;;;;;5.53;100.00;100956.97;5044885;28;20020;-73
2022/02/20 00:45:25;;;;;;;14.93;3.60;;;;;;;5.56;100.00;100966.66;5061099;28;20035;-73
2022/02/20 00:47:52;;;;;;;16.17;3.70;;;;;;;5.57;100.00;100965.56;5077677;28;20054;-73
2022/02/20 00:50:17;;;;;;;17.58;3.33;;;;;;;5.57;100.00;100973.81;5057815;28;20024;-73
2022/02/20 00:52:43;;;;;;;21.15;4.00;;;;;;;5.59;100.00;100963.41;5064971;28;20021;-73
2022/02/20 00:55:08;;;;;;;18.13;2.97;;;;;;;5.58;100.00;100970.00;5074868;28;20718;-73
2022/02/20 00:57:34;;;;;;;16.90;4.20;;;;;;;5.60;100.00;100963.16;5058890;28;20107;-73
2022/02/20 01:00:00;;;;;;;17.63;3.35;;;;;;;5.62;100.00;100946.38;5074311;28;20040;-73
2022/02/20 01:02:26;;;;;;;18.70;3.38;;;;;;;5.65;100.00;100947.78;5077840;28;20537;-73
2022/02/20 01:04:52;;;;;;;16.38;3.15;;;;;;;5.67;100.00;100951.13;5092786;28;20038;-73
2022/02/20 01:07:18;;;;;;;22.48;3.80;;;;;;;5.68;100.00;100953.63;5077952;28;20027;-73
2022/02/20 01:09:44;;;;;;;21.40;4.00;;;;;;;5.65;100.00;100943.09;5078081;28;20032;-73
2022/02/20 01:12:10;;;;;;;18.77;2.85;;;;;;;5.66;100.00;100949.47;5095923;28;20476;-73
2022/02/20 01:14:35;;;;;;;15.60;2.97;;;;;;;5.68;100.00;100952.78;5079382;28;20027;-72
2022/02/20 01:17:01;;;;;;;17.92;3.67;;;;;;;5.68;100.00;100947.28;5078926;28;20031;-73
2022/02/20 01:19:26;;;;;;;20.65;3.50;;;;;;;5.68;100.00;100936.25;5067442;28;20051;-73
2022/02/20 01:21:51;;;;;;;21.60;3.30;;;;;;;5.69;100.00;100937.94;5049963;28;20184;-73
2022/02/20 01:24:17;;;;;;;21.23;4.45;;;;;;;5.68;100.00;100930.75;5097513;28;20030;-73
2022/02/20 01:26:42;;;;;;;18.40;3.67;;;;;;;5.69;100.00;100926.91;5083640;28;20032;-73
2022/02/20 01:29:08;;;;;;;19.63;3.28;;;;;;;5.70;100.00;100932.16;5081435;28;20536;-73
2022/02/20 01:31:34;;;;;;;21.45;3.90;;;;;;;5.71;100.00;100933.84;5099406;28;20015;-73
2022/02/20 01:33:59;;;;;;;21.77;4.00;;;;;;;5.72;100.00;100953.97;5073022;28;20193;-73
2022/02/20 01:36:25;;;;;;;22.70;3.70;;;;;;;5.71;100.00;100955.91;5079487;28;20028;-72
2022/02/20 01:38:50;;;;;;;15.25;3.15;;;;;;;5.74;100.00;100962.81;5077402;28;20612;-73
2022/02/20 01:41:19;;;;;;;20.77;3.30;;;;;;;5.69;100.00;100969.09;5082588;28;20059;-72
2022/02/20 01:43:45;;;;;;;17.38;2.88;;;;;;;5.68;100.00;100963.81;5056396;28;20031;-73
2022/02/20 01:46:10;;;;;;;14.15;3.00;;;;;;;5.69;100.00;100971.00;5084628;28;20484;-73
2022/02/20 01:48:36;;;;;;;17.45;3.10;;;;;;;5.67;100.00;100985.03;5056905;28;20028;-73
2022/02/20 01:51:05;;;;;;;18.98;3.78;;;;;;;5.68;100.00;100994.13;5085958;28;20027;-73
2022/02/20 01:53:30;;;;;;;19.73;3.58;;;;;;;5.66;100.00;100999.91;5079247;28;20032;-72
2022/02/20 01:55:56;;;;;;;15.98;2.97;;;;;;;5.64;100.00;100995.72;5087581;28;20031;-73
2022/02/20 01:58:21;;;;;;;22.25;3.35;;;;;;;5.64;100.00;100993.81;5046028;28;20878;-73
2022/02/20 02:00:47;;;;;;;20.65;3.75;;;;;;;5.65;100.00;100981.69;5057380;28;20036;-73
2022/02/20 02:03:16;;;;;;;16.38;3.10;;;;;;;5.67;100.00;100967.66;5057754;28;20039;-73
2022/02/20 02:05:42;;;;;;;17.48;3.15;;;;;;;5.67;100.00;100956.66;5062818;28;20028;-73
2022/02/20 02:08:08;;;;;;;20.85;3.20;;;;;;;5.68;100.00;100937.09;5067395;28;20024;-73
2022/02/20 02:10:34;;;;;;;23.40;3.30;;;;;;;5.69;100.00;100926.91;5053574;28;20024;-73
2022/02/20 02:12:59;;;;;;;19.60;3.35;;;;;;;5.71;100.00;100927.47;5081513;28;20046;-73
2022/02/20 02:15:24;;;;;;;15.07;2.75;;;;;;;5.74;100.00;100925.09;5057093;28;20032;-73
2022/02/20 02:17:50;;;;;;;19.33;3.10;;;;;;;5.74;100.00;100924.22;5071644;28;20028;-73
2022/02/20 02:20:15;;;;;;;12.80;2.85;;;;;;;5.77;100.00;100907.22;5057732;28;20024;-73
2022/02/20 02:22:41;;;;;;;21.48;3.72;;;;;;;5.79;100.00;100908.63;5039248;28;20024;-73
2022/02/20 02:25:07;;;;;;;23.58;3.40;;;;;;;5.79;100.00;100918.78;5076607;28;20731;-73
2022/02/20 02:27:32;;;;;;;27.33;4.00;;;;;;;5.80;100.00;100914.97;5066311;28;20088;-73
2022/02/20 02:29:58;;;;;;;21.83;3.88;;;;;;;5.82;100.00;100915.53;5091972;28;20028;-73
2022/02/20 02:32:23;;;;;;;23.83;3.70;;;;;;;5.81;100.00;100914.69;5109023;28;20031;-73
2022/02/20 02:34:49;;;;;;;21.65;3.33;;;;;;;5.83;100.00;100912.53;5058431;28;20056;-73
2022/02/20 02:37:15;;;;;;;17.15;3.15;;;;;;;5.85;100.00;100925.22;5076284;28;20123;-73
2022/02/20 02:39:40;;;;;;;19.23;4.05;;;;;;;5.85;100.00;100926.06;5083505;28;20040;-73
2022/02/20 02:42:07;;;;;;;18.55;3.35;;;;;;;5.85;100.00;100915.06;5085184;28;20055;-73
2022/02/20 02:44:32;;;;;;;18.23;3.33;;;;;;;5.85;100.00;100914.19;5065386;28;20040;-73
2022/02/20 02:46:58;;;;;;;23.42;4.07;;;;;;;5.83;100.00;100928.25;5045894;28;20032;-73
2022/02/20 02:49:23;;;;;;;15.38;3.70;;;;;;;5.82;100.00;100927.41;5054815;28;20103;-73
2022/02/20 02:51:49;;;;;;;24.35;3.95;;;;;;;5.81;100.00;100927.66;5045827;28;20024;-73
2022/02/20 02:54:17;;;;;;;19.52;3.15;;;;;;;5.80;100.00;100940.59;5080225;28;20713;-73
2022/02/20 02:56:46;;;;;;;24.95;3.72;;;;;;;5.79;100.00;100919.66;5072483;28;20028;-73
2022/02/20 02:59:11;;;;;;;21.95;3.47;;;;;;;5.79;100.00;100927.06;5107452;28;20529;-73
2022/02/20 03:01:37;;;;;;;21.33;2.83;;;;;;;5.77;100.00;100940.28;5085544;28;20055;-73
2022/02/20 03:04:02;;;;;;;20.67;4.43;;;;;;;5.76;100.00;100944.94;5073672;28;20031;-73
2022/02/20 03:06:28;;;;;;;24.50;3.80;;;;;;;5.76;100.00;100957.88;5073779;28;20073;-73
2022/02/20 03:08:53;;;;;;;17.50;3.17;;;;;;;5.74;100.00;100969.19;5056037;28;20024;-73
2022/02/20 03:11:19;;;;;;;19.90;3.28;;;;;;;5.74;100.00;100952.63;5080058;28;20495;-73
2022/02/20 03:13:44;;;;;;;18.73;2.95;;;;;;;5.76;100.00;100958.72;5073784;28;20053;-73
2022/02/20 03:16:10;;;;;;;17.80;3.17;;;;;;;5.75;100.00;100953.47;5039636;28;20036;-73
2022/02/20 03:18:36;;;;;;;19.42;3.30;;;;;;;5.72;100.00;100934.69;5059645;28;20056;-73
2022/02/20 03:21:03;;;;;;;18.85;4.22;;;;;;;5.71;100.00;100941.25;5071336;28;20028;-73
2022/02/20 03:23:28;;;;;;;19.80;3.58;;;;;;;5.69;100.00;100933.25;5109846;28;20152;-73
2022/02/20 03:25:54;;;;;;;25.88;3.90;;;;;;;5.69;100.00;100938.78;5083625;28;20125;-73
2022/02/20 03:28:19;;;;;;;17.27;3.30;;;;;;;5.67;100.00;100929.09;5091832;28;20023;-73
2022/02/20 03:30:45;;;;;;;19.63;3.22;;;;;;;5.67;100.00;100923.56;5079220;28;20023;-73
2022/02/20 03:33:10;;;;;;;25.38;3.90;;;;;;;5.66;100.00;100911.72;5079804;28;20055;-73
2022/02/20 03:35:36;;;;;;;24.58;3.67;;;;;;;5.67;100.00;100907.03;5057222;28;20032;-73
2022/02/20 03:38:01;;;;;;;19.95;3.72;;;;;;;5.66;100.00;100913.66;5076914;27;20089;-73
2022/02/20 03:40:27;;;;;;;22.92;3.05;;;;;;;5.66;100.00;100899.88;5085645;28;20027;-73
2022/02/20 03:42:52;;;;;;;24.13;3.63;;;;;;;5.65;100.00;100899.00;5062370;28;20093;-73
2022/02/20 03:45:18;;;;;;;22.10;3.22;;;;;;;5.64;100.00;100896.53;5089193;28;20043;-73
2022/02/20 03:47:43;;;;;;;23.08;3.30;;;;;;;5.64;100.00;100902.88;5054533;28;20038;-73
2022/02/20 03:50:09;;;;;;;18.35;3.40;;;;;;;5.61;100.00;100881.34;5060194;28;20020;-73
2022/02/20 03:52:35;;;;;;;25.67;3.78;;;;;;;5.63;100.00;100879.16;5063611;28;20048;-73
2022/02/20 03:55:00;;;;;;;20.48;3.42;;;;;;;5.62;100.00;100888.50;5099373;28;20028;-73
2022/02/20 03:57:26;;;;;;;26.58;3.50;;;;;;;5.60;100.00;100888.75;5088188;28;20028;-73
2022/02/20 03:59:51;;;;;;;20.77;3.88;;;;;;;5.60;100.00;100888.75;5088441;28;20028;-73
2022/02/20 04:02:17;;;;;;;24.70;4.05;;;;;;;5.60;100.00;100880.50;5106188;28;20024;-73
2022/02/20 04:04:42;;;;;;;15.88;3.20;;;;;;;5.61;100.00;100878.56;5088748;28;20054;-73
2022/02/20 04:07:08;;;;;;;17.38;3.40;;;;;;;5.60;100.00;100869.47;5093979;28;20032;-73
2022/02/20 04:09:33;;;;;;;18.83;3.55;;;;;;;5.63;100.00;100875.56;5082909;28;20031;-73
2022/02/20 04:11:59;;;;;;;19.67;3.50;;;;;;;5.63;100.00;100867.28;5089180;28;20020;-73
2022/02/20 04:14:25;;;;;;;23.95;3.75;;;;;;;5.65;100.00;100874.22;5071481;28;20032;-73
2022/02/20 04:16:50;;;;;;;23.80;4.07;;;;;;;5.66;100.00;100883.34;5047729;28;20495;-73
2022/02/20 04:19:16;;;;;;;25.67;3.70;;;;;;;5.65;100.00;100879.72;5090608;28;20434;-73
2022/02/20 04:21:41;;;;;;;23.70;4.10;;;;;;;5.68;100.00;100894.91;5087310;28;20106;-73
2022/02/20 04:24:07;;;;;;;21.60;4.25;;;;;;;5.69;100.00;100893.84;5090719;28;20532;-73
2022/02/20 04:26:32;;;;;;;22.17;4.15;;;;;;;5.70;100.00;100879.81;5111206;28;20038;-73
2022/02/20 04:28:58;;;;;;;21.48;4.18;;;;;;;5.74;100.00;100880.13;5077985;28;20040;-73
2022/02/20 04:31:23;;;;;;;23.27;3.50;;;;;;;5.76;100.00;100886.22;5075365;28;20028;-73
2022/02/20 04:33:48;;;;;;;18.08;3.80;;;;;;;5.80;100.00;100887.41;5096072;28;20039;-73
2022/02/20 04:36:14;;;;;;;19.45;3.40;;;;;;;5.81;100.00;100886.31;5124509;28;20030;-73
2022/02/20 04:38:40;;;;;;;23.27;3.90;;;;;;;5.83;100.00;100881.38;5068764;28;20455;-73
2022/02/20 04:41:05;;;;;;;19.83;3.55;;;;;;;5.85;100.00;100881.13;5101601;28;20033;-73
2022/02/20 04:43:31;;;;;;;17.02;3.35;;;;;;;5.86;100.00;100867.09;5098261;28;20023;-73
2022/02/20 04:45:56;;;;;;;23.63;3.75;;;;;;;5.90;100.00;100862.72;5096743;28;20034;-73
2022/02/20 04:48:22;;;;;;;23.80;4.05;;;;;;;5.93;100.00;100858.63;5099797;28;20476;-73
2022/02/20 04:50:47;;;;;;;19.27;3.50;;;;;;;5.95;100.00;100865.59;5051553;28;20532;-73
2022/02/20 04:53:13;;;;;;;23.73;4.10;;;;;;;5.99;100.00;100864.00;5089994;28;20436;-73
2022/02/20 04:55:39;;;;;;;16.52;3.63;;;;;;;6.03;100.00;100872.59;5056415;28;20480;-73
2022/02/20 04:58:04;;;;;;;25.40;4.25;;;;;;;6.05;100.00;100873.19;5081518;28;20028;-73
2022/02/20 05:00:30;;;;;;;28.25;3.83;;;;;;;6.08;100.00;100880.09;5084857;27;20031;-73
2022/02/20 05:02:55;;;;;;;26.13;4.30;;;;;;;6.10;100.00;100873.25;5087251;28;20036;-73
2022/02/20 05:05:21;;;;;;;18.67;4.35;;;;;;;6.10;100.00;100880.66;5075539;27;20031;-73
2022/02/20 05:07:46;;;;;;;20.00;3.25;;;;;;;6.13;100.00;100885.66;5068279;28;20083;-73
2022/02/20 05:10:12;;;;;;;20.13;4.40;;;;;;;6.16;100.00;100897.03;5064658;28;20476;-73
2022/02/20 05:12:37;;;;;;;21.67;4.07;;;;;;;6.16;100.00;100904.50;5063553;28;20046;-73
2022/02/20 05:15:03;;;;;;;18.92;4.25;;;;;;;6.18;100.00;100905.88;5064398;28;20491;-73
2022/02/20 05:17:28;;;;;;;20.83;3.45;;;;;;;6.22;100.00;100909.81;5096424;27;20077;-73
2022/02/20 05:19:54;;;;;;;24.40;3.58;;;;;;;6.24;100.00;100907.63;5094279;28;20028;-73
2022/02/20 05:22:19;;;;;;;21.92;3.53;;;;;;;6.26;100.00;100901.84;5096574;27;20028;-73
2022/02/20 05:24:46;;;;;;;25.15;4.43;;;;;;;6.28;100.00;100899.66;5066344;28;20034;-72
2022/02/20 05:27:11;;;;;;;19.98;3.78;;;;;;;6.30;100.00;100908.53;5094479;27;20452;-73
2022/02/20 05:29:37;;;;;;;23.58;4.25;;;;;;;6.33;100.00;100899.75;5100625;28;20019;-73
2022/02/20 05:32:03;;;;;;;27.30;3.85;;;;;;;6.36;100.00;100903.91;5099359;28;20061;-73
2022/02/20 05:34:28;;;;;;;20.83;3.85;;;;;;;6.38;100.00;100904.47;5069788;28;20078;-73
2022/02/20 05:36:54;;;;;;;25.02;3.47;;;;;;;6.39;100.00;100904.22;5053988;28;20035;-72
2022/02/20 05:39:19;;;;;;;18.98;3.65;;;;;;;6.42;100.00;100898.19;5068662;28;20546;-73
2022/02/20 05:41:45;;;;;;;21.42;3.08;;;;;;;6.45;100.00;100902.38;5066810;28;20058;-73
2022/02/20 05:44:10;;;;;;;23.63;3.65;;;;;;;6.46;100.00;100904.03;5081634;28;20024;-73
2022/02/20 05:46:36;;;;;;;18.52;3.85;;;;;;;6.46;100.00;100904.03;5118462;28;20031;-73
2022/02/20 05:49:04;;;;;;;34.15;5.53;;;;;;;6.52;100.00;100907.69;5097211;28;20425;-73
2022/02/20 05:51:30;;;;;;;22.90;4.70;;;;;;;6.53;100.00;100915.72;5098139;28;20094;-73
2022/02/20 05:53:56;;;;;;;32.33;4.95;;;;;;;6.55;100.00;100910.78;5086953;28;20027;-73
2022/02/20 05:56:22;;;;;;;24.60;4.55;;;;;;;6.57;100.00;100918.78;5080251;28;20499;-73
2022/02/20 05:58:47;;;;;;;25.30;4.35;;;;;;;6.58;100.00;100929.56;5079032;28;20073;-73
2022/02/20 06:01:13;;;;;;;21.88;4.53;;;;;;;6.60;100.00;100915.50;5090229;28;20038;-73
2022/02/20 06:03:38;;;;;;;18.70;3.33;;;;;;;6.62;100.00;100899.53;5098662;28;20027;-73
2022/02/20 06:06:04;;;;;;;28.33;4.68;;;;;;;6.63;100.00;100888.25;5061568;28;20028;-73
2022/02/20 06:08:30;;;;;;;21.05;4.80;;;;;;;6.65;100.00;100887.97;5075800;27;20035;-73
2022/02/20 06:10:56;;;;;;;22.65;4.00;;;;;;;6.64;100.00;100892.66;5061125;28;20051;-73
2022/02/20 06:13:22;;;;;;;23.75;4.47;;;;;;;6.65;100.00;100890.72;5048256;28;20392;-73
2022/02/20 06:15:47;;;;;;;23.98;4.88;;;;;;;6.65;100.00;100866.72;5046071;28;20438;-73
2022/02/20 06:18:13;;;;;;;24.35;4.68;;;;;;;6.68;100.00;100866.19;5053352;28;20031;-73
2022/02/20 06:20:38;;;;;;;17.85;3.95;;;;;;;6.67;100.00;100855.44;5051612;27;20122;-73
2022/02/20 06:23:04;;;;;;;20.10;4.18;;;;;;;6.67;100.00;100861.78;5049587;27;20028;-73
2022/02/20 06:25:30;;;;;;;27.02;4.45;;;;;;;6.69;100.00;100869.81;5058342;28;20080;-73
2022/02/20 06:27:55;;;;;;;22.10;4.53;;;;;;;6.69;100.00;100867.06;5080598;28;20549;-73
2022/02/20 06:30:21;;;;;;;24.65;3.78;;;;;;;6.68;100.00;100868.97;5050609;28;20454;-73
2022/02/20 06:32:46;;;;;;;28.02;4.05;;;;;;;6.67;100.00;100878.34;5068374;28;20039;-74
2022/02/20 06:35:12;;;;;;;21.92;3.92;;;;;;;6.66;100.00;100887.72;5054839;28;20035;-73
2022/02/20 06:37:38;;;;;;;30.38;4.28;;;;;;;6.65;100.00;100877.75;5061824;28;20467;-73
2022/02/20 06:40:04;;;;;;;28.58;5.28;;;;;;;6.64;100.00;100878.03;5081730;28;20027;-73
2022/02/20 06:42:29;;;;;;;24.38;4.00;;;;;;;6.63;100.00;100884.63;5079956;28;20479;-73
2022/02/20 06:44:55;;;;;;;20.23;4.05;;;;;;;6.60;100.00;100894.28;5052936;28;20089;-73
2022/02/20 06:47:20;;;;;;;19.48;3.92;;;;;;;6.60;100.00;100894.28;5071337;28;20624;-73
2022/02/20 06:49:46;;;;;;;19.88;3.53;;;;;;;6.59;100.00;100891.78;5052551;27;20045;-73
2022/02/20 06:52:11;;;;;;;25.83;3.45;;;;;;;6.58;100.00;100895.63;5055269;27;20087;-73
2022/02/20 06:54:37;;;;;;;23.92;3.85;;;;;;;6.59;100.00;100891.78;5098972;28;20081;-73
2022/02/20 06:57:02;;;;;;;19.40;3.60;;;;;;;6.60;100.00;100904.47;5086055;28;20023;-73
2022/02/20 06:59:28;;;;;;;24.30;3.53;;;;;;;6.58;100.00;100901.97;5108328;27;20039;-73
2022/02/20 07:01:54;;;;;;;18.95;3.63;;;;;;;6.58;100.00;100892.88;5054408;28;20073;-73
2022/02/20 07:04:19;;;;;;;20.85;3.83;;;;;;;6.59;100.00;100889.00;5061736;28;20099;-73
2022/02/20 07:06:45;;;;;;;24.02;4.13;;;;;;;6.59;100.00;100900.88;5063529;27;20043;-73
2022/02/20 07:09:11;;;;;;;22.85;3.40;;;;;;;6.60;100.00;100909.97;5096984;27;20038;-73
2022/02/20 07:11:40;;;;;;;19.17;4.38;;;;;;;6.59;100.00;100911.09;5067255;28;20476;-73
2022/02/20 07:14:06;;;;;;;20.58;3.80;;;;;;;6.60;100.00;100905.31;5096334;28;20055;-73
2022/02/20 07:16:32;;;;;;;28.33;3.90;;;;;;;6.62;100.00;100913.34;5051253;28;20034;-73
2022/02/20 07:18:57;;;;;;;19.58;3.63;;;;;;;6.62;100.00;100919.69;5064479;28;20031;-73
2022/02/20 07:21:24;;;;;;;17.90;3.47;;;;;;;6.64;100.00;100928.53;5065856;27;20036;-73
2022/02/20 07:23:50;;;;;;;15.60;3.05;;;;;;;6.66;100.00;100931.06;5078806;27;20027;-73
2022/02/20 07:26:15;;;;;;;21.70;3.65;;;;;;;6.69;100.00;100936.91;5061215;28;20063;-73
2022/02/20 07:28:41;;;;;;;20.60;3.65;;;;;;;6.69;100.00;100936.06;5054434;28;20023;-74
2022/02/20 07:31:06;;;;;;;23.00;3.35;;;;;;;6.72;100.00;100930.03;5069423;27;20024;-73
2022/02/20 07:33:32;;;;;;;20.83;3.03;;;;;;;6.75;100.00;100923.16;5049468;28;20043;-73
2022/02/20 07:35:57;;;;;;;19.98;3.08;;;;;;;6.78;100.00;100922.63;5073642;28;20024;-73
2022/02/20 07:38:24;;;;;;;16.30;2.83;;;;;;;6.79;100.00;100916.00;5061840;28;20040;-73
2022/02/20 07:40:49;;;;;;;18.00;3.42;;;;;;;6.83;100.00;100923.53;5049129;28;20104;-73
2022/02/20 07:43:15;;;;;;;19.17;3.15;;;;;;;6.84;100.00;100916.06;5049457;28;20028;-74
2022/02/20 07:45:40;;;;;;;15.90;3.10;;;;;;;6.86;100.00;100913.91;5085505;28;20035;-73
2022/02/20 07:48:06;;;;;;;15.23;2.78;;;;;;;6.88;100.00;100911.69;5081646;28;20703;-73
2022/02/20 07:50:38;;;;;;;18.77;3.33;;;;;;;6.91;100.00;100902.91;5065200;28;20110;-73
2022/02/20 07:53:04;;;;;;;16.83;3.53;;;;;;;6.94;100.00;100907.91;5063132;28;20019;-73
2022/02/20 07:55:30;;;;;;;21.88;3.42;;;;;;;7.00;100.00;100914.31;5069693;27;20070;-74
2022/02/20 07:57:56;;;;;;;15.95;3.10;;;;;;;7.01;100.00;100915.97;5068454;28;20043;-73
2022/02/20 08:00:23;;;;;;;16.70;3.03;;;;;;;7.03;100.00;100924.84;5054820;28;20028;-73
2022/02/20 08:02:50;;;;;;;23.08;3.78;;;;;;;7.08;100.00;100927.66;5064176;28;20027;-73
2022/02/20 08:05:19;;;;;;;20.27;2.85;;;;;;;7.12;100.00;100928.78;5081249;28;20115;-73
2022/02/20 08:07:44;;;;;;;16.20;3.42;;;;;;;7.12;100.00;100923.25;5095104;28;20035;-73
2022/02/20 08:10:10;;;;;;;24.13;4.15;;;;;;;7.18;100.00;100913.94;5077034;28;20040;-74
2022/02/20 08:12:35;;;;;;;24.35;4.80;;;;;;;7.23;100.00;100919.50;5058303;28;20028;-73
2022/02/20 08:15:01;;;;;;;17.70;3.15;;;;;;;7.25;100.00;100917.31;5042279;28;20024;-73
2022/02/20 08:17:26;;;;;;;19.67;3.45;;;;;;;7.29;100.00;100912.09;5095642;28;20036;-73
2022/02/20 08:19:52;;;;;;;13.50;3.10;;;;;;;7.34;100.00;100917.69;5080405;28;20024;-73
2022/02/20 08:22:17;;;;;;;21.77;3.53;;;;;;;7.40;100.00;100924.91;5050616;28;20567;-73
2022/02/20 08:24:43;;;;;;;21.23;3.67;;;;;;;7.44;100.00;100908.63;5055609;28;20055;-73
2022/02/20 08:27:10;;;;;;;21.10;4.05;;;;;;;7.48;100.00;100907.00;5060008;28;20031;-73
2022/02/20 08:29:36;;;;;;;22.80;4.10;;;;;;;7.51;100.00;100907.31;5043026;28;20032;-73
2022/02/20 08:32:02;;;;;;;19.27;3.97;;;;;;;7.54;100.00;100901.25;5069917;28;20368;-73
2022/02/20 08:34:30;;;;;;;25.10;3.40;;;;;;;7.59;100.00;100909.59;5088548;28;20047;-74
2022/02/20 08:36:56;;;;;;;24.58;4.00;;;;;;;7.64;100.00;100911.56;5055113;28;20035;-73
2022/02/20 08:39:21;;;;;;;19.38;3.28;;;;;;;7.66;100.00;100917.69;5069167;28;20024;-73
2022/02/20 08:41:49;;;;;;;24.50;3.95;;;;;;;7.73;100.00;100911.91;5086915;28;20430;-79
2022/02/20 08:44:20;;;;;;;20.40;3.30;;;;;;;7.78;100.00;100914.72;5084160;27;20425;-82
2022/02/20 08:46:46;;;;;;;25.92;3.97;;;;;;;7.84;100.00;100916.41;5074347;28;20028;-83
2022/02/20 08:49:19;;;;;;;24.55;4.00;;;;;;;7.90;100.00;100929.16;5102099;28;20038;-83
2022/02/20 08:51:50;;;;;;;27.98;4.30;;;;;;;7.98;100.00;100928.66;5076324;28;20054;-80
2022/02/20 08:54:49;;;;;;;31.08;5.50;;;;;;;8.08;100.00;100919.63;5115096;28;20038;-80
2022/02/20 08:57:25;;;;;;;27.25;4.47;;;;;;;8.16;100.00;100912.72;5078381;28;20028;-80
2022/02/20 09:00:05;;;;;;;26.33;4.53;;;;;;;8.24;100.00;100909.44;5067177;28;20043;-80
2022/02/20 09:02:51;;;;;;;;;;;;;;;;;;;;;
2022/02/20 09:05:20;;;;;;;37.33;5.40;;;;;;;8.46;100.00;100915.69;5086611;28;20020;-80
2022/02/20 09:07:51;;;;;;;40.33;5.85;;;;;;;8.59;100.00;100919.06;5048030;28;20050;-80
2022/02/20 09:10:19;;;;;;;38.58;5.95;;;;;;;8.69;100.00;100908.00;5093332;28;20024;-80
2022/02/20 09:12:47;;;;;;;34.55;5.53;;;;;;;8.81;100.00;100900.31;5075161;28;20028;-80
2022/02/20 09:15:13;;;;;;;41.15;5.47;;;;;;;8.92;100.00;100913.09;5095989;28;20593;-79
2022/02/20 09:17:41;;;;;;;39.97;6.35;;;;;;;9.04;100.00;100910.06;5115601;28;20023;-80
2022/02/20 09:20:45;;;;;;;;;;;;;;;;;;;;;
2022/02/20 09:23:21;;;;;;;34.38;5.00;;;;;;;9.28;100.00;100912.31;5109981;28;20414;-79
2022/02/20 09:25:55;;;;;;;36.50;5.72;;;;;;;9.40;100.00;100907.31;5069843;28;20354;-80
2022/02/20 09:28:28;;;;;;;28.88;5.47;;;;;;;9.51;100.00;100910.94;5068194;28;20046;-80
2022/02/20 09:30:56;;;;;;;40.90;6.00;;;;;;;9.62;100.00;100901.50;5068409;28;20025;-80
2022/02/20 09:33:35;;;;;;;44.00;6.97;;;;;;;9.72;100.00;100903.44;5096689;27;20130;-80
2022/02/20 09:36:09;;;;;;;40.00;6.20;;;;;;;9.83;100.00;100880.97;5098347;27;20074;-79
2022/02/20 09:38:42;;;;;;;36.72;5.85;;;;;;;9.94;100.00;100881.75;5073468;27;20023;-80
2022/02/20 09:41:14;;;;;;;44.92;6.32;;;;;;;10.06;100.00;100881.47;5066809;27;20020;-80
2022/02/20 09:43:40;;;;;;;44.37;6.23;;;;;;;10.18;100.00;100889.47;5087048;28;20042;-80
2022/02/20 09:46:11;;;;;;;41.90;6.25;;;;;;;10.26;100.00;100886.94;5079980;27;20034;-81
2022/02/20 09:48:38;;;;;;;42.35;6.40;;;;;;;10.35;100.00;100883.63;5098011;27;20024;-79
2022/02/20 09:51:03;;;;;;;43.10;7.10;;;;;;;10.42;100.00;100884.13;5104852;28;20576;-79
2022/02/20 09:53:29;;;;;;;40.05;6.28;;;;;;;10.51;100.00;100877.72;5104899;27;20127;-81
2022/02/20 09:55:57;;;;;;;48.33;6.95;;;;;;;10.58;100.00;100874.63;5059573;28;20035;-81
2022/02/20 09:58:36;;;;;;;37.10;6.93;;;;;;;10.66;100.00;100879.59;5061300;27;20035;-80
2022/02/20 10:01:17;;;;;;;42.53;6.93;;;;;;;10.73;100.00;100876.50;5061171;28;20027;-81
2022/02/20 10:03:54;;;;;;;47.72;7.47;;;;;;;10.81;100.00;100873.13;5074389;28;20059;-80
2022/02/20 10:06:50;;;;;;;41.90;6.80;;;;;;;10.85;100.00;100876.97;5058645;28;20032;-81
2022/02/20 10:09:25;;;;;;;45.90;5.72;;;;;;;10.91;100.00;100852.78;5096451;27;20080;-80
2022/02/20 10:11:50;;;;;;;49.45;6.93;;;;;;;10.98;100.00;100861.63;5097343;28;20465;-80
2022/02/20 10:14:18;;;;;;;41.10;7.45;;;;;;;11.04;100.00;100857.69;5107484;27;20088;-73
2022/02/20 10:16:43;;;;;;;46.22;6.53;;;;;;;11.07;100.00;100851.56;5090448;27;20058;-74
2022/02/20 10:19:10;;;;;;;29.95;6.03;;;;;;;11.11;100.00;100843.47;5091104;28;20400;-75
2022/02/20 10:21:36;;;;;;;31.27;5.28;;;;;;;11.14;100.00;100840.94;5113872;27;20605;-73
2022/02/20 10:24:06;;;;;;;39.80;6.05;;;;;;;11.16;100.00;100858.16;5115535;28;20031;-73
2022/02/20 10:26:35;;;;;;;28.83;4.65;;;;;;;11.16;100.00;100851.75;5106575;27;20034;-74
2022/02/20 10:29:11;;;;;;;38.15;6.47;;;;;;;11.20;100.00;100861.19;5132428;27;20023;-74
2022/02/20 10:31:41;;;;;;;39.78;6.55;;;;;;;11.24;100.00;100862.25;5125554;27;20384;-73
2022/02/20 10:34:11;;;;;;;39.55;6.95;;;;;;;11.28;100.00;100874.47;5102584;28;20400;-75
2022/02/20 10:36:59;;;;;;;42.45;7.18;;;;;;;11.33;100.00;100871.63;5124158;27;20031;-75
2022/02/20 10:39:40;;;;;;;47.88;6.55;;;;;;;11.38;100.00;100863.25;5115920;27;20038;-75
2022/02/20 10:42:14;;;;;;;44.10;6.40;;;;;;;11.41;100.00;100867.41;5084732;28;20031;-75
2022/02/20 10:44:56;;;;;;;38.95;6.13;;;;;;;11.44;100.00;100877.13;5122729;27;20034;-75
2022/02/20 10:47:22;;;;;;;36.28;6.05;;;;;;;11.50;100.00;100870.41;5125702;27;20069;-75
2022/02/20 10:49:47;;;;;;;44.95;7.13;;;;;;;11.54;100.00;100869.53;5085972;28;20057;-75
2022/02/20 10:52:23;;;;;;;40.80;5.72;;;;;;;11.58;100.00;100867.81;5105025;27;20061;-76
2022/02/20 10:55:02;;;;;;;39.30;5.78;;;;;;;11.63;100.00;100864.16;5117638;27;20035;-76
2022/02/20 10:57:35;;;;;;;38.53;6.35;;;;;;;11.64;100.00;100865.81;5100862;27;20092;-75
2022/02/20 11:00:13;;;;;;;39.90;5.78;;;;;;;11.68;100.00;100863.28;5125374;27;20112;-74
2022/02/20 11:02:39;;;;;;;34.97;5.90;;;;;;;11.70;100.00;100864.66;5110149;27;20031;-75
2022/02/20 11:05:05;;;;;;;35.72;6.82;;;;;;;11.75;100.00;100856.25;5127219;27;20034;-75
2022/02/20 11:07:31;;;;;;;39.80;6.15;;;;;;;11.81;100.00;100859.78;5089965;27;20046;-74
2022/02/20 11:09:56;;;;;;;39.80;6.43;;;;;;;11.90;100.00;100857.25;5070972;28;20016;-75
2022/02/20 11:12:22;;;;;;;36.97;6.10;;;;;;;11.99;100.00;100864.66;5076543;27;20024;-75
2022/02/20 11:14:49;;;;;;;34.50;6.22;;;;;;;12.10;100.00;100865.38;5094613;28;20030;-74
2022/02/20 11:17:33;;;;;;;37.50;5.85;;;;;;;12.19;100.00;100854.41;5090193;27;20023;-83
2022/02/20 11:19:59;;;;;;;29.42;5.63;;;;;;;12.29;100.00;100857.09;5052296;28;20062;-81